Back to Top

Language: 

My Weather Underground Personal Weather Station Historical Data with Graphs...

Delerius Weather Station Historical Data
Daily Summary for January 26, 2018 Units:  Both    English   Metric
« Previous Day
Next Day »
Daily Weekly Monthly Yearly Custom
  High: Low: Average:
Temperature: 48.4 °F /  9.1 °C 33.4 °F /  0.8 °C 39.5 °F /  4.2 °C
Dew Point: 40.8 °F /  4.9 °C 32.1 °F /  0.1 °C 36.3 °F /  2.4 °C
Humidity: 97 % 69 % 89 %
Wind Speed: 8.0 mph /  12.9 km/h - 2 mph /  3.2 km/h
Wind Gust: 13.0 mph /  20.9 km/h - -
Wind:- - WNW
Pressure: 30.27 in /  1024.9 hPa 29.75 in /  1007.3 hPa -
Precipitation: 0.01 in /  0.25 mm    
Historical Graphs
 
 
Tabular Data for January 26, 2018
Time Temperature Dew Point Pressure Wind Wind Speed Wind Gust Humidity Rainfall Rate (Hourly) solar Conditions
00:04 35.1 °F /  1.7 °C 33.2 °F /  0.7 °C 29.75 in /  1007.3 hPa Calm     93 % 0.00 in /  0 mm 0 W/m2
00:09 34.9 °F /  1.6 °C 33.1 °F /  0.6 °C 29.75 in /  1007.3 hPa Calm     93 % 0.00 in /  0 mm 0 W/m2
00:14 34.3 °F /  1.3 °C 32.5 °F /  0.3 °C 29.75 in /  1007.3 hPa Calm     93 % 0.00 in /  0 mm 0 W/m2
00:19 34.2 °F /  1.2 °C 32.3 °F /  0.2 °C 29.76 in /  1007.7 hPa Calm     93 % 0.00 in /  0 mm 0 W/m2
00:24 34.3 °F /  1.3 °C 32.8 °F /  0.4 °C 29.76 in /  1007.7 hPa NNE 3.0 mph /  4.8 km/h 5.0 mph /  8 km/h 94 % 0.00 in /  0 mm 0 W/m2
00:29 34.7 °F /  1.5 °C 33.2 °F /  0.7 °C 29.76 in /  1007.7 hPa NNE 1.0 mph /  1.6 km/h 4.0 mph /  6.4 km/h 94 % 0.00 in /  0 mm 0 W/m2
00:34 35.1 °F /  1.7 °C 33.5 °F /  0.8 °C 29.76 in /  1007.7 hPa Calm     94 % 0.00 in /  0 mm 0 W/m2
00:39 35.1 °F /  1.7 °C 33.5 °F /  0.8 °C 29.77 in /  1008 hPa Calm     94 % 0.00 in /  0 mm 0 W/m2
00:44 34.9 °F /  1.6 °C 33.3 °F /  0.7 °C 29.77 in /  1008 hPa Calm     94 % 0.00 in /  0 mm 0 W/m2
00:49 34.7 °F /  1.5 °C 33.2 °F /  0.7 °C 29.77 in /  1008 hPa Calm     94 % 0.00 in /  0 mm 0 W/m2
00:54 34.5 °F /  1.4 °C 33.0 °F /  0.6 °C 29.77 in /  1008 hPa Calm     94 % 0.00 in /  0 mm 0 W/m2
00:59 34.3 °F /  1.3 °C 32.8 °F /  0.4 °C 29.78 in /  1008.4 hPa Calm     94 % 0.00 in /  0 mm 0 W/m2
01:04 34.5 °F /  1.4 °C 33.0 °F /  0.6 °C 29.78 in /  1008.4 hPa North 1.0 mph /  1.6 km/h 4.0 mph /  6.4 km/h 94 % 0.00 in /  0 mm 0 W/m2
01:09 34.7 °F /  1.5 °C 33.4 °F /  0.8 °C 29.78 in /  1008.4 hPa NW 1.0 mph /  1.6 km/h 2.0 mph /  3.2 km/h 95 % 0.00 in /  0 mm 0 W/m2
01:14 35.1 °F /  1.7 °C 33.8 °F /  1 °C 29.78 in /  1008.4 hPa NW 2.0 mph /  3.2 km/h 5.0 mph /  8 km/h 95 % 0.00 in /  0 mm 0 W/m2
01:19 35.6 °F /  2 °C 34.3 °F /  1.3 °C 29.78 in /  1008.4 hPa NNW 3.0 mph /  4.8 km/h 5.0 mph /  8 km/h 95 % 0.00 in /  0 mm 0 W/m2
01:24 35.8 °F /  2.1 °C 34.5 °F /  1.4 °C 29.78 in /  1008.4 hPa Calm   2.0 mph /  3.2 km/h 95 % 0.00 in /  0 mm 0 W/m2
01:30 36.0 °F /  2.2 °C 34.7 °F /  1.5 °C 29.79 in /  1008.7 hPa Calm     95 % 0.00 in /  0 mm 0 W/m2
01:35 35.6 °F /  2 °C 34.0 °F /  1.1 °C 29.80 in /  1009 hPa Calm     94 % 0.00 in /  0 mm 0 W/m2
01:40 35.2 °F /  1.8 °C 33.7 °F /  0.9 °C 29.80 in /  1009 hPa Calm     94 % 0.00 in /  0 mm 0 W/m2
01:45 34.9 °F /  1.6 °C 33.3 °F /  0.7 °C 29.80 in /  1009 hPa Calm     94 % 0.00 in /  0 mm 0 W/m2
01:50 34.7 °F /  1.5 °C 33.2 °F /  0.7 °C 29.80 in /  1009 hPa Calm     94 % 0.00 in /  0 mm 0 W/m2
01:55 34.5 °F /  1.4 °C 33.0 °F /  0.6 °C 29.80 in /  1009 hPa Calm     94 % 0.00 in /  0 mm 0 W/m2
02:00 34.5 °F /  1.4 °C 33.0 °F /  0.6 °C 29.81 in /  1009.4 hPa Calm     94 % 0.00 in /  0 mm 0 W/m2
02:05 34.5 °F /  1.4 °C 33.2 °F /  0.7 °C 29.81 in /  1009.4 hPa Calm     95 % 0.00 in /  0 mm 0 W/m2
02:10 34.5 °F /  1.4 °C 33.2 °F /  0.7 °C 29.81 in /  1009.4 hPa Calm     95 % 0.00 in /  0 mm 0 W/m2
02:15 34.5 °F /  1.4 °C 33.2 °F /  0.7 °C 29.82 in /  1009.7 hPa Calm     95 % 0.00 in /  0 mm 0 W/m2
02:20 34.5 °F /  1.4 °C 33.2 °F /  0.7 °C 29.82 in /  1009.7 hPa Calm     95 % 0.00 in /  0 mm 0 W/m2
02:25 34.3 °F /  1.3 °C 33.1 °F /  0.6 °C 29.82 in /  1009.7 hPa Calm     95 % 0.00 in /  0 mm 0 W/m2
02:30 34.3 °F /  1.3 °C 33.1 °F /  0.6 °C 29.82 in /  1009.7 hPa Calm     95 % 0.00 in /  0 mm 0 W/m2
02:35 34.3 °F /  1.3 °C 33.1 °F /  0.6 °C 29.82 in /  1009.7 hPa Calm     95 % 0.00 in /  0 mm 0 W/m2
02:40 34.2 °F /  1.2 °C 32.9 °F /  0.5 °C 29.83 in /  1010 hPa Calm   1.0 mph /  1.6 km/h 95 % 0.00 in /  0 mm 0 W/m2
02:45 34.2 °F /  1.2 °C 32.9 °F /  0.5 °C 29.83 in /  1010 hPa Calm     95 % 0.00 in /  0 mm 0 W/m2
02:50 34.2 °F /  1.2 °C 32.9 °F /  0.5 °C 29.83 in /  1010 hPa Calm     95 % 0.00 in /  0 mm 0 W/m2
02:55 34.0 °F /  1.1 °C 32.7 °F /  0.4 °C 29.84 in /  1010.4 hPa Calm     95 % 0.00 in /  0 mm 0 W/m2
03:00 33.8 °F /  1 °C 32.5 °F /  0.3 °C 29.84 in /  1010.4 hPa Calm     95 % 0.00 in /  0 mm 0 W/m2
03:05 33.6 °F /  0.9 °C 32.1 °F /  0.1 °C 29.84 in /  1010.4 hPa Calm     94 % 0.00 in /  0 mm 0 W/m2
03:10 33.6 °F /  0.9 °C 32.3 °F /  0.2 °C 29.85 in /  1010.7 hPa Calm     95 % 0.00 in /  0 mm 0 W/m2
03:15 33.6 °F /  0.9 °C 32.3 °F /  0.2 °C 29.85 in /  1010.7 hPa Calm     95 % 0.00 in /  0 mm 0 W/m2
03:20 33.6 °F /  0.9 °C 32.3 °F /  0.2 °C 29.85 in /  1010.7 hPa Calm     95 % 0.00 in /  0 mm 0 W/m2
03:25 34.0 °F /  1.1 °C 32.7 °F /  0.4 °C 29.85 in /  1010.7 hPa Calm   4.0 mph /  6.4 km/h 95 % 0.00 in /  0 mm 0 W/m2
03:30 34.0 °F /  1.1 °C 32.7 °F /  0.4 °C 29.85 in /  1010.7 hPa Calm     95 % 0.00 in /  0 mm 0 W/m2
03:35 33.8 °F /  1 °C 32.5 °F /  0.3 °C 29.85 in /  1010.7 hPa Calm     95 % 0.01 in /  0.25 mm 0 W/m2
03:40 33.6 °F /  0.9 °C 32.3 °F /  0.2 °C 29.85 in /  1010.7 hPa NW 2.0 mph /  3.2 km/h 5.0 mph /  8 km/h 95 % 0.01 in /  0.25 mm 0 W/m2
03:45 33.8 °F /  1 °C 32.5 °F /  0.3 °C 29.85 in /  1010.7 hPa NW 1.0 mph /  1.6 km/h 4.0 mph /  6.4 km/h 95 % 0.01 in /  0.25 mm 0 W/m2
03:50 33.8 °F /  1 °C 32.5 °F /  0.3 °C 29.86 in /  1011.1 hPa Calm     95 % 0.01 in /  0.25 mm 0 W/m2
03:55 33.6 °F /  0.9 °C 32.3 °F /  0.2 °C 29.86 in /  1011.1 hPa Calm     95 % 0.01 in /  0.25 mm 0 W/m2
04:00 33.4 °F /  0.8 °C 32.2 °F /  0.1 °C 29.86 in /  1011.1 hPa NW 2.0 mph /  3.2 km/h 4.0 mph /  6.4 km/h 95 % 0.01 in /  0.25 mm 0 W/m2
04:05 34.0 °F /  1.1 °C 33.0 °F /  0.6 °C 29.87 in /  1011.4 hPa NW 2.0 mph /  3.2 km/h 4.0 mph /  6.4 km/h 96 % 0.01 in /  0.25 mm 0 W/m2
04:10 34.3 °F /  1.3 °C 33.3 °F /  0.7 °C 29.87 in /  1011.4 hPa NW 2.0 mph /  3.2 km/h 4.0 mph /  6.4 km/h 96 % 0.01 in /  0.25 mm 0 W/m2
04:15 34.9 °F /  1.6 °C 33.9 °F /  1.1 °C 29.87 in /  1011.4 hPa NW 2.0 mph /  3.2 km/h 5.0 mph /  8 km/h 96 % 0.01 in /  0.25 mm 0 W/m2
04:20 35.2 °F /  1.8 °C 34.2 °F /  1.2 °C 29.88 in /  1011.7 hPa WNW 2.0 mph /  3.2 km/h 6.0 mph /  9.7 km/h 96 % 0.01 in /  0.25 mm 0 W/m2
04:25 35.4 °F /  1.9 °C 34.4 °F /  1.3 °C 29.88 in /  1011.7 hPa NW 3.0 mph /  4.8 km/h 6.0 mph /  9.7 km/h 96 % 0.01 in /  0.25 mm 0 W/m2
04:30 35.8 °F /  2.1 °C 34.8 °F /  1.6 °C 29.89 in /  1012.1 hPa NW 3.0 mph /  4.8 km/h 5.0 mph /  8 km/h 96 % 0.01 in /  0.25 mm 0 W/m2
04:35 36.0 °F /  2.2 °C 34.9 °F /  1.6 °C 29.89 in /  1012.1 hPa NW 3.0 mph /  4.8 km/h 7.0 mph /  11.3 km/h 96 % 0.00 in /  0 mm 0 W/m2
04:40 36.1 °F /  2.3 °C 35.1 °F /  1.7 °C 29.89 in /  1012.1 hPa NW 2.0 mph /  3.2 km/h 4.0 mph /  6.4 km/h 96 % 0.00 in /  0 mm 0 W/m2
04:45 36.1 °F /  2.3 °C 35.1 °F /  1.7 °C 29.89 in /  1012.1 hPa Calm     96 % 0.00 in /  0 mm 0 W/m2
04:50 35.6 °F /  2 °C 34.3 °F /  1.3 °C 29.90 in /  1012.4 hPa NW 1.0 mph /  1.6 km/h 4.0 mph /  6.4 km/h 95 % 0.00 in /  0 mm 0 W/m2
04:55 35.4 °F /  1.9 °C 34.1 °F /  1.2 °C 29.90 in /  1012.4 hPa NW 3.0 mph /  4.8 km/h 6.0 mph /  9.7 km/h 95 % 0.00 in /  0 mm 0 W/m2
05:00 35.4 °F /  1.9 °C 34.4 °F /  1.3 °C 29.91 in /  1012.8 hPa WNW 4.0 mph /  6.4 km/h 6.0 mph /  9.7 km/h 96 % 0.00 in /  0 mm 0 W/m2
05:05 36.0 °F /  2.2 °C 34.9 °F /  1.6 °C 29.91 in /  1012.8 hPa NW 3.0 mph /  4.8 km/h 6.0 mph /  9.7 km/h 96 % 0.00 in /  0 mm 0 W/m2
05:10 36.3 °F /  2.4 °C 35.3 °F /  1.8 °C 29.91 in /  1012.8 hPa NW 4.0 mph /  6.4 km/h 8.0 mph /  12.9 km/h 96 % 0.00 in /  0 mm 0 W/m2
05:15 36.9 °F /  2.7 °C 36.1 °F /  2.3 °C 29.91 in /  1012.8 hPa NW 5.0 mph /  8 km/h 8.0 mph /  12.9 km/h 97 % 0.00 in /  0 mm 0 W/m2
05:20 37.2 °F /  2.9 °C 36.4 °F /  2.4 °C 29.91 in /  1012.8 hPa NW 5.0 mph /  8 km/h 9.0 mph /  14.5 km/h 97 % 0.00 in /  0 mm 0 W/m2
05:25 37.4 °F /  3 °C 36.4 °F /  2.4 °C 29.91 in /  1012.8 hPa NW 4.0 mph /  6.4 km/h 7.0 mph /  11.3 km/h 96 % 0.00 in /  0 mm 0 W/m2
05:30 37.6 °F /  3.1 °C 36.5 °F /  2.5 °C 29.92 in /  1013.1 hPa NW 4.0 mph /  6.4 km/h 9.0 mph /  14.5 km/h 96 % 0.00 in /  0 mm 0 W/m2
05:36 37.6 °F /  3.1 °C 36.5 °F /  2.5 °C 29.92 in /  1013.1 hPa NW 3.0 mph /  4.8 km/h 7.0 mph /  11.3 km/h 96 % 0.00 in /  0 mm 0 W/m2
05:41 37.8 °F /  3.2 °C 36.7 °F /  2.6 °C 29.92 in /  1013.1 hPa NW 2.0 mph /  3.2 km/h 6.0 mph /  9.7 km/h 96 % 0.00 in /  0 mm 0 W/m2
05:46 37.9 °F /  3.3 °C 36.9 °F /  2.7 °C 29.92 in /  1013.1 hPa NW 4.0 mph /  6.4 km/h 7.0 mph /  11.3 km/h 96 % 0.00 in /  0 mm 0 W/m2
05:51 38.1 °F /  3.4 °C 37.1 °F /  2.8 °C 29.93 in /  1013.4 hPa NW 4.0 mph /  6.4 km/h 8.0 mph /  12.9 km/h 96 % 0.00 in /  0 mm 0 W/m2
05:56 38.1 °F /  3.4 °C 37.1 °F /  2.8 °C 29.93 in /  1013.4 hPa NW 4.0 mph /  6.4 km/h 7.0 mph /  11.3 km/h 96 % 0.00 in /  0 mm 0 W/m2
06:01 38.1 °F /  3.4 °C 37.1 °F /  2.8 °C 29.94 in /  1013.8 hPa NW 2.0 mph /  3.2 km/h 6.0 mph /  9.7 km/h 96 % 0.00 in /  0 mm 0 W/m2
06:06 38.1 °F /  3.4 °C 37.1 °F /  2.8 °C 29.94 in /  1013.8 hPa WNW 4.0 mph /  6.4 km/h 7.0 mph /  11.3 km/h 96 % 0.00 in /  0 mm 0 W/m2
06:11 38.3 °F /  3.5 °C 37.3 °F /  2.9 °C 29.95 in /  1014.1 hPa NW 6.0 mph /  9.7 km/h 9.0 mph /  14.5 km/h 96 % 0.00 in /  0 mm 0 W/m2
06:16 38.5 °F /  3.6 °C 37.4 °F /  3 °C 29.95 in /  1014.1 hPa WNW 4.0 mph /  6.4 km/h 6.0 mph /  9.7 km/h 96 % 0.00 in /  0 mm 0 W/m2
06:21 38.7 °F /  3.7 °C 37.6 °F /  3.1 °C 29.95 in /  1014.1 hPa NW 3.0 mph /  4.8 km/h 7.0 mph /  11.3 km/h 96 % 0.00 in /  0 mm 0 W/m2
06:26 38.7 °F /  3.7 °C 37.6 °F /  3.1 °C 29.96 in /  1014.4 hPa NW 3.0 mph /  4.8 km/h 7.0 mph /  11.3 km/h 96 % 0.00 in /  0 mm 0 W/m2
06:31 38.8 °F /  3.8 °C 37.8 °F /  3.2 °C 29.96 in /  1014.4 hPa NW 3.0 mph /  4.8 km/h 6.0 mph /  9.7 km/h 96 % 0.00 in /  0 mm 0 W/m2
06:36 39.0 °F /  3.9 °C 38.0 °F /  3.3 °C 29.96 in /  1014.4 hPa NNW 5.0 mph /  8 km/h 10.0 mph /  16.1 km/h 96 % 0.00 in /  0 mm 0 W/m2
06:41 39.0 °F /  3.9 °C 38.0 °F /  3.3 °C 29.97 in /  1014.8 hPa NW 4.0 mph /  6.4 km/h 7.0 mph /  11.3 km/h 96 % 0.00 in /  0 mm 0 W/m2
06:46 39.2 °F /  4 °C 38.2 °F /  3.4 °C 29.97 in /  1014.8 hPa NNW 4.0 mph /  6.4 km/h 8.0 mph /  12.9 km/h 96 % 0.00 in /  0 mm 0 W/m2
06:51 39.4 °F /  4.1 °C 38.3 °F /  3.5 °C 29.98 in /  1015.1 hPa NW 4.0 mph /  6.4 km/h 9.0 mph /  14.5 km/h 96 % 0.00 in /  0 mm 0 W/m2
06:56 39.4 °F /  4.1 °C 38.3 °F /  3.5 °C 29.98 in /  1015.1 hPa NW 3.0 mph /  4.8 km/h 9.0 mph /  14.5 km/h 96 % 0.00 in /  0 mm 0 W/m2
07:01 39.4 °F /  4.1 °C 38.3 °F /  3.5 °C 29.98 in /  1015.1 hPa NNW 1.0 mph /  1.6 km/h 5.0 mph /  8 km/h 96 % 0.00 in /  0 mm 0 W/m2
07:06 39.6 °F /  4.2 °C 38.5 °F /  3.6 °C 29.99 in /  1015.5 hPa NNW 3.0 mph /  4.8 km/h 7.0 mph /  11.3 km/h 96 % 0.00 in /  0 mm 0 W/m2
07:11 39.6 °F /  4.2 °C 38.5 °F /  3.6 °C 29.99 in /  1015.5 hPa NW 6.0 mph /  9.7 km/h 10.0 mph /  16.1 km/h 96 % 0.00 in /  0 mm 0 W/m2
07:16 39.6 °F /  4.2 °C 38.5 °F /  3.6 °C 29.99 in /  1015.5 hPa NNW 3.0 mph /  4.8 km/h 7.0 mph /  11.3 km/h 96 % 0.00 in /  0 mm 0 W/m2
07:21 39.7 °F /  4.3 °C 38.7 °F /  3.7 °C 29.99 in /  1015.5 hPa North 6.0 mph /  9.7 km/h 10.0 mph /  16.1 km/h 96 % 0.00 in /  0 mm 0 W/m2
07:26 39.6 °F /  4.2 °C 38.5 °F /  3.6 °C 30.00 in /  1015.8 hPa North 5.0 mph /  8 km/h 11.0 mph /  17.7 km/h 96 % 0.00 in /  0 mm 0 W/m2
07:31 39.6 °F /  4.2 °C 38.2 °F /  3.4 °C 30.00 in /  1015.8 hPa NNW 8.0 mph /  12.9 km/h 13.0 mph /  20.9 km/h 95 % 0.00 in /  0 mm 0 W/m2
07:36 39.6 °F /  4.2 °C 38.2 °F /  3.4 °C 30.00 in /  1015.8 hPa NNW 5.0 mph /  8 km/h 10.0 mph /  16.1 km/h 95 % 0.00 in /  0 mm 0 W/m2
07:41 39.6 °F /  4.2 °C 38.2 °F /  3.4 °C 30.01 in /  1016.1 hPa NNW 5.0 mph /  8 km/h 11.0 mph /  17.7 km/h 95 % 0.00 in /  0 mm 0 W/m2
07:46 39.4 °F /  4.1 °C 38.1 °F /  3.4 °C 30.01 in /  1016.1 hPa NW 3.0 mph /  4.8 km/h 8.0 mph /  12.9 km/h 95 % 0.00 in /  0 mm 0 W/m2
07:51 39.2 °F /  4 °C 37.9 °F /  3.3 °C 30.02 in /  1016.5 hPa NW 5.0 mph /  8 km/h 8.0 mph /  12.9 km/h 95 % 0.00 in /  0 mm 0 W/m2
07:56 39.2 °F /  4 °C 37.9 °F /  3.3 °C 30.02 in /  1016.5 hPa NNW 4.0 mph /  6.4 km/h 8.0 mph /  12.9 km/h 95 % 0.00 in /  0 mm 0 W/m2
08:01 39.2 °F /  4 °C 37.9 °F /  3.3 °C 30.02 in /  1016.5 hPa NW 5.0 mph /  8 km/h 8.0 mph /  12.9 km/h 95 % 0.00 in /  0 mm 0 W/m2
08:06 39.4 °F /  4.1 °C 38.1 °F /  3.4 °C 30.02 in /  1016.5 hPa NNW 5.0 mph /  8 km/h 11.0 mph /  17.7 km/h 95 % 0.00 in /  0 mm 5 W/m2
08:11 39.6 °F /  4.2 °C 38.2 °F /  3.4 °C 30.03 in /  1016.8 hPa NNW 4.0 mph /  6.4 km/h 7.0 mph /  11.3 km/h 95 % 0.00 in /  0 mm 7 W/m2
08:16 39.6 °F /  4.2 °C 38.2 °F /  3.4 °C 30.03 in /  1016.8 hPa NW 4.0 mph /  6.4 km/h 7.0 mph /  11.3 km/h 95 % 0.00 in /  0 mm 7 W/m2
08:21 39.6 °F /  4.2 °C 38.2 °F /  3.4 °C 30.04 in /  1017.2 hPa NW 4.0 mph /  6.4 km/h 8.0 mph /  12.9 km/h 95 % 0.00 in /  0 mm 11 W/m2
08:26 39.7 °F /  4.3 °C 38.4 °F /  3.6 °C 30.04 in /  1017.2 hPa NW 3.0 mph /  4.8 km/h 7.0 mph /  11.3 km/h 95 % 0.00 in /  0 mm 12 W/m2
08:32 39.6 °F /  4.2 °C 38.0 °F /  3.3 °C 30.04 in /  1017.2 hPa NW 4.0 mph /  6.4 km/h 7.0 mph /  11.3 km/h 94 % 0.00 in /  0 mm 11 W/m2
08:37 39.7 °F /  4.3 °C 38.4 °F /  3.6 °C 30.05 in /  1017.5 hPa NW 4.0 mph /  6.4 km/h 8.0 mph /  12.9 km/h 95 % 0.00 in /  0 mm 12 W/m2
08:42 39.7 °F /  4.3 °C 38.4 °F /  3.6 °C 30.05 in /  1017.5 hPa NW 4.0 mph /  6.4 km/h 7.0 mph /  11.3 km/h 95 % 0.00 in /  0 mm 18 W/m2
08:47 39.9 °F /  4.4 °C 38.3 °F /  3.5 °C 30.06 in /  1017.8 hPa NW 6.0 mph /  9.7 km/h 10.0 mph /  16.1 km/h 94 % 0.00 in /  0 mm 21 W/m2
08:52 39.9 °F /  4.4 °C 38.3 °F /  3.5 °C 30.06 in /  1017.8 hPa NW 4.0 mph /  6.4 km/h 7.0 mph /  11.3 km/h 94 % 0.00 in /  0 mm 28 W/m2
08:57 40.1 °F /  4.5 °C 38.5 °F /  3.6 °C 30.07 in /  1018.2 hPa NW 6.0 mph /  9.7 km/h 10.0 mph /  16.1 km/h 94 % 0.00 in /  0 mm 25 W/m2
09:02 40.3 °F /  4.6 °C 38.7 °F /  3.7 °C 30.07 in /  1018.2 hPa NW 6.0 mph /  9.7 km/h 9.0 mph /  14.5 km/h 94 % 0.00 in /  0 mm 25 W/m2
09:07 40.3 °F /  4.6 °C 38.7 °F /  3.7 °C 30.08 in /  1018.5 hPa NW 5.0 mph /  8 km/h 10.0 mph /  16.1 km/h 94 % 0.00 in /  0 mm 26 W/m2
09:12 40.5 °F /  4.7 °C 38.9 °F /  3.8 °C 30.08 in /  1018.5 hPa NW 6.0 mph /  9.7 km/h 9.0 mph /  14.5 km/h 94 % 0.00 in /  0 mm 30 W/m2
09:17 40.5 °F /  4.7 °C 38.9 °F /  3.8 °C 30.09 in /  1018.8 hPa NW 5.0 mph /  8 km/h 9.0 mph /  14.5 km/h 94 % 0.00 in /  0 mm 35 W/m2
09:22 40.6 °F /  4.8 °C 39.0 °F /  3.9 °C 30.09 in /  1018.8 hPa NW 7.0 mph /  11.3 km/h 13.0 mph /  20.9 km/h 94 % 0.00 in /  0 mm 42 W/m2
09:27 40.6 °F /  4.8 °C 39.0 °F /  3.9 °C 30.10 in /  1019.2 hPa NW 6.0 mph /  9.7 km/h 10.0 mph /  16.1 km/h 94 % 0.00 in /  0 mm 49 W/m2
09:32 40.8 °F /  4.9 °C 39.2 °F /  4 °C 30.10 in /  1019.2 hPa NW 7.0 mph /  11.3 km/h 12.0 mph /  19.3 km/h 94 % 0.00 in /  0 mm 32 W/m2
09:37 40.8 °F /  4.9 °C 39.0 °F /  3.9 °C 30.10 in /  1019.2 hPa NW 6.0 mph /  9.7 km/h 9.0 mph /  14.5 km/h 93 % 0.00 in /  0 mm 30 W/m2
09:42 40.8 °F /  4.9 °C 39.0 °F /  3.9 °C 30.10 in /  1019.2 hPa NW 4.0 mph /  6.4 km/h 8.0 mph /  12.9 km/h 93 % 0.00 in /  0 mm 40 W/m2
09:47 40.8 °F /  4.9 °C 39.0 °F /  3.9 °C 30.10 in /  1019.2 hPa NW 6.0 mph /  9.7 km/h 10.0 mph /  16.1 km/h 93 % 0.00 in /  0 mm 39 W/m2
09:52 41.0 °F /  5 °C 39.1 °F /  3.9 °C 30.11 in /  1019.5 hPa NW 4.0 mph /  6.4 km/h 9.0 mph /  14.5 km/h 93 % 0.00 in /  0 mm 37 W/m2
09:57 41.0 °F /  5 °C 39.1 °F /  3.9 °C 30.11 in /  1019.5 hPa NW 4.0 mph /  6.4 km/h 7.0 mph /  11.3 km/h 93 % 0.00 in /  0 mm 40 W/m2
10:02 41.2 °F /  5.1 °C 39.3 °F /  4.1 °C 30.11 in /  1019.5 hPa WNW 2.0 mph /  3.2 km/h 6.0 mph /  9.7 km/h 93 % 0.00 in /  0 mm 76 W/m2
10:07 41.2 °F /  5.1 °C 39.3 °F /  4.1 °C 30.11 in /  1019.5 hPa NW 5.0 mph /  8 km/h 9.0 mph /  14.5 km/h 93 % 0.00 in /  0 mm 90 W/m2
10:12 41.2 °F /  5.1 °C 39.0 °F /  3.9 °C 30.11 in /  1019.5 hPa NW 4.0 mph /  6.4 km/h 6.0 mph /  9.7 km/h 92 % 0.00 in /  0 mm 100 W/m2
10:17 41.4 °F /  5.2 °C 39.2 °F /  4 °C 30.11 in /  1019.5 hPa NW 5.0 mph /  8 km/h 10.0 mph /  16.1 km/h 92 % 0.00 in /  0 mm 93 W/m2
10:22 41.5 °F /  5.3 °C 39.4 °F /  4.1 °C 30.11 in /  1019.5 hPa NW 4.0 mph /  6.4 km/h 8.0 mph /  12.9 km/h 92 % 0.00 in /  0 mm 93 W/m2
10:27 41.5 °F /  5.3 °C 39.4 °F /  4.1 °C 30.11 in /  1019.5 hPa NNW 6.0 mph /  9.7 km/h 10.0 mph /  16.1 km/h 92 % 0.00 in /  0 mm 105 W/m2
10:32 41.5 °F /  5.3 °C 39.1 °F /  3.9 °C 30.12 in /  1019.9 hPa NW 5.0 mph /  8 km/h 11.0 mph /  17.7 km/h 91 % 0.00 in /  0 mm 79 W/m2
10:37 41.7 °F /  5.4 °C 39.3 °F /  4.1 °C 30.12 in /  1019.9 hPa NW 5.0 mph /  8 km/h 8.0 mph /  12.9 km/h 91 % 0.00 in /  0 mm 77 W/m2
10:42 41.7 °F /  5.4 °C 39.0 °F /  3.9 °C 30.12 in /  1019.9 hPa NW 5.0 mph /  8 km/h 9.0 mph /  14.5 km/h 90 % 0.00 in /  0 mm 83 W/m2
10:47 41.7 °F /  5.4 °C 39.0 °F /  3.9 °C 30.12 in /  1019.9 hPa NW 5.0 mph /  8 km/h 9.0 mph /  14.5 km/h 90 % 0.00 in /  0 mm 111 W/m2
10:53 41.7 °F /  5.4 °C 39.0 °F /  3.9 °C 30.12 in /  1019.9 hPa NW 3.0 mph /  4.8 km/h 6.0 mph /  9.7 km/h 90 % 0.00 in /  0 mm 279 W/m2
10:58 42.3 °F /  5.7 °C 39.8 °F /  4.3 °C 30.12 in /  1019.9 hPa NW 4.0 mph /  6.4 km/h 9.0 mph /  14.5 km/h 91 % 0.00 in /  0 mm 283 W/m2
11:03 42.6 °F /  5.9 °C 39.9 °F /  4.4 °C 30.13 in /  1020.2 hPa NW 5.0 mph /  8 km/h 9.0 mph /  14.5 km/h 90 % 0.00 in /  0 mm 287 W/m2
11:08 43.0 °F /  6.1 °C 40.2 °F /  4.6 °C 30.13 in /  1020.2 hPa NW 3.0 mph /  4.8 km/h 7.0 mph /  11.3 km/h 90 % 0.00 in /  0 mm 287 W/m2
11:13 43.5 °F /  6.4 °C 40.5 °F /  4.7 °C 30.13 in /  1020.2 hPa WNW 5.0 mph /  8 km/h 9.0 mph /  14.5 km/h 89 % 0.00 in /  0 mm 294 W/m2
11:18 43.9 °F /  6.6 °C 40.3 °F /  4.6 °C 30.13 in /  1020.2 hPa NNW 6.0 mph /  9.7 km/h 11.0 mph /  17.7 km/h 87 % 0.00 in /  0 mm 299 W/m2
11:23 44.2 °F /  6.8 °C 40.6 °F /  4.8 °C 30.14 in /  1020.5 hPa NW 5.0 mph /  8 km/h 9.0 mph /  14.5 km/h 87 % 0.00 in /  0 mm 304 W/m2
11:28 44.4 °F /  6.9 °C 40.5 °F /  4.7 °C 30.13 in /  1020.2 hPa NW 7.0 mph /  11.3 km/h 11.0 mph /  17.7 km/h 86 % 0.00 in /  0 mm 304 W/m2
11:33 44.6 °F /  7 °C 40.7 °F /  4.8 °C 30.13 in /  1020.2 hPa NW 4.0 mph /  6.4 km/h 7.0 mph /  11.3 km/h 86 % 0.00 in /  0 mm 308 W/m2
11:38 45.0 °F /  7.2 °C 40.7 °F /  4.8 °C 30.14 in /  1020.5 hPa NW 2.0 mph /  3.2 km/h 7.0 mph /  11.3 km/h 85 % 0.00 in /  0 mm 316 W/m2
11:43 45.3 °F /  7.4 °C 40.8 °F /  4.9 °C 30.14 in /  1020.5 hPa WNW 7.0 mph /  11.3 km/h 11.0 mph /  17.7 km/h 84 % 0.00 in /  0 mm 322 W/m2
11:48 45.7 °F /  7.6 °C 40.8 °F /  4.9 °C 30.14 in /  1020.5 hPa NW 5.0 mph /  8 km/h 9.0 mph /  14.5 km/h 83 % 0.00 in /  0 mm 323 W/m2
11:53 45.7 °F /  7.6 °C 40.5 °F /  4.7 °C 30.14 in /  1020.5 hPa NNW 6.0 mph /  9.7 km/h 10.0 mph /  16.1 km/h 82 % 0.00 in /  0 mm 323 W/m2
11:58 45.7 °F /  7.6 °C 40.8 °F /  4.9 °C 30.13 in /  1020.2 hPa NNW 4.0 mph /  6.4 km/h 8.0 mph /  12.9 km/h 83 % 0.00 in /  0 mm 327 W/m2
12:03 45.9 °F /  7.7 °C 40.7 °F /  4.8 °C 30.14 in /  1020.5 hPa North 6.0 mph /  9.7 km/h 10.0 mph /  16.1 km/h 82 % 0.00 in /  0 mm 339 W/m2
12:08 45.7 °F /  7.6 °C 40.2 °F /  4.6 °C 30.14 in /  1020.5 hPa North 6.0 mph /  9.7 km/h 11.0 mph /  17.7 km/h 81 % 0.00 in /  0 mm 77 W/m2
12:13 45.7 °F /  7.6 °C 40.5 °F /  4.7 °C 30.14 in /  1020.5 hPa North 4.0 mph /  6.4 km/h 9.0 mph /  14.5 km/h 82 % 0.00 in /  0 mm 272 W/m2
12:18 45.9 °F /  7.7 °C 40.7 °F /  4.8 °C 30.13 in /  1020.2 hPa NW 4.0 mph /  6.4 km/h 9.0 mph /  14.5 km/h 82 % 0.00 in /  0 mm 160 W/m2
12:23 46.2 °F /  7.9 °C 40.7 °F /  4.8 °C 30.14 in /  1020.5 hPa North 4.0 mph /  6.4 km/h 9.0 mph /  14.5 km/h 81 % 0.00 in /  0 mm 396 W/m2
12:28 46.2 °F /  7.9 °C 40.1 °F /  4.5 °C 30.14 in /  1020.5 hPa North 3.0 mph /  4.8 km/h 7.0 mph /  11.3 km/h 79 % 0.00 in /  0 mm 274 W/m2
12:33 46.0 °F /  7.8 °C 39.9 °F /  4.4 °C 30.14 in /  1020.5 hPa North 5.0 mph /  8 km/h 9.0 mph /  14.5 km/h 79 % 0.00 in /  0 mm 362 W/m2
12:38 46.0 °F /  7.8 °C 39.2 °F /  4 °C 30.14 in /  1020.5 hPa NNE 6.0 mph /  9.7 km/h 9.0 mph /  14.5 km/h 77 % 0.00 in /  0 mm 98 W/m2
12:43 45.9 °F /  7.7 °C 39.4 °F /  4.1 °C 30.14 in /  1020.5 hPa North 3.0 mph /  4.8 km/h 7.0 mph /  11.3 km/h 78 % 0.00 in /  0 mm 345 W/m2
12:48 46.0 °F /  7.8 °C 39.9 °F /  4.4 °C 30.14 in /  1020.5 hPa NNW 3.0 mph /  4.8 km/h 6.0 mph /  9.7 km/h 79 % 0.00 in /  0 mm 285 W/m2
12:53 46.2 °F /  7.9 °C 39.7 °F /  4.3 °C 30.15 in /  1020.9 hPa NW 5.0 mph /  8 km/h 7.0 mph /  11.3 km/h 78 % 0.00 in /  0 mm 83 W/m2
12:58 46.0 °F /  7.8 °C 39.2 °F /  4 °C 30.14 in /  1020.5 hPa NNW 2.0 mph /  3.2 km/h 6.0 mph /  9.7 km/h 77 % 0.00 in /  0 mm 77 W/m2
13:03 46.0 °F /  7.8 °C 39.2 °F /  4 °C 30.15 in /  1020.9 hPa NNE 2.0 mph /  3.2 km/h 5.0 mph /  8 km/h 77 % 0.00 in /  0 mm 225 W/m2
13:08 46.0 °F /  7.8 °C 39.2 °F /  4 °C 30.15 in /  1020.9 hPa NNW 5.0 mph /  8 km/h 9.0 mph /  14.5 km/h 77 % 0.00 in /  0 mm 195 W/m2
13:13 45.9 °F /  7.7 °C 38.4 °F /  3.6 °C 30.15 in /  1020.9 hPa North 2.0 mph /  3.2 km/h 6.0 mph /  9.7 km/h 75 % 0.00 in /  0 mm 111 W/m2
13:18 45.7 °F /  7.6 °C 38.2 °F /  3.4 °C 30.15 in /  1020.9 hPa NNE 3.0 mph /  4.8 km/h 7.0 mph /  11.3 km/h 75 % 0.00 in /  0 mm 206 W/m2
13:23 45.7 °F /  7.6 °C 38.5 °F /  3.6 °C 30.15 in /  1020.9 hPa NE 1.0 mph /  1.6 km/h 5.0 mph /  8 km/h 76 % 0.00 in /  0 mm 308 W/m2
13:28 46.0 °F /  7.8 °C 39.2 °F /  4 °C 30.16 in /  1021.2 hPa NW 1.0 mph /  1.6 km/h 6.0 mph /  9.7 km/h 77 % 0.00 in /  0 mm 308 W/m2
13:33 46.6 °F /  8.1 °C 39.4 °F /  4.1 °C 30.15 in /  1020.9 hPa NW 3.0 mph /  4.8 km/h 7.0 mph /  11.3 km/h 76 % 0.00 in /  0 mm 330 W/m2
13:38 46.9 °F /  8.3 °C 39.4 °F /  4.1 °C 30.15 in /  1020.9 hPa WNW 2.0 mph /  3.2 km/h 5.0 mph /  8 km/h 75 % 0.00 in /  0 mm 313 W/m2
13:43 47.5 °F /  8.6 °C 39.9 °F /  4.4 °C 30.15 in /  1020.9 hPa NW 3.0 mph /  4.8 km/h 8.0 mph /  12.9 km/h 75 % 0.00 in /  0 mm 299 W/m2
13:48 47.8 °F /  8.8 °C 40.0 °F /  4.4 °C 30.16 in /  1021.2 hPa WNW 4.0 mph /  6.4 km/h 9.0 mph /  14.5 km/h 74 % 0.00 in /  0 mm 294 W/m2
13:53 48.0 °F /  8.9 °C 39.8 °F /  4.3 °C 30.16 in /  1021.2 hPa WNW 3.0 mph /  4.8 km/h 6.0 mph /  9.7 km/h 73 % 0.00 in /  0 mm 272 W/m2
13:58 47.8 °F /  8.8 °C 39.2 °F /  4 °C 30.15 in /  1020.9 hPa NNE 3.0 mph /  4.8 km/h 5.0 mph /  8 km/h 72 % 0.00 in /  0 mm 267 W/m2
14:03 47.7 °F /  8.7 °C 39.1 °F /  3.9 °C 30.15 in /  1020.9 hPa North 2.0 mph /  3.2 km/h 6.0 mph /  9.7 km/h 72 % 0.00 in /  0 mm 264 W/m2
14:08 47.7 °F /  8.7 °C 39.1 °F /  3.9 °C 30.16 in /  1021.2 hPa North 4.0 mph /  6.4 km/h 7.0 mph /  11.3 km/h 72 % 0.00 in /  0 mm 250 W/m2
14:13 47.7 °F /  8.7 °C 39.1 °F /  3.9 °C 30.16 in /  1021.2 hPa NW 3.0 mph /  4.8 km/h 7.0 mph /  11.3 km/h 72 % 0.00 in /  0 mm 257 W/m2
14:18 47.8 °F /  8.8 °C 38.9 °F /  3.8 °C 30.16 in /  1021.2 hPa NNW 2.0 mph /  3.2 km/h 5.0 mph /  8 km/h 71 % 0.00 in /  0 mm 258 W/m2
14:23 47.8 °F /  8.8 °C 38.9 °F /  3.8 °C 30.17 in /  1021.6 hPa North 1.0 mph /  1.6 km/h 5.0 mph /  8 km/h 71 % 0.00 in /  0 mm 260 W/m2
14:28 47.8 °F /  8.8 °C 38.5 °F /  3.6 °C 30.17 in /  1021.6 hPa NW 3.0 mph /  4.8 km/h 7.0 mph /  11.3 km/h 70 % 0.00 in /  0 mm 267 W/m2
14:33 48.2 °F /  9 °C 38.9 °F /  3.8 °C 30.17 in /  1021.6 hPa NW 5.0 mph /  8 km/h 7.0 mph /  11.3 km/h 70 % 0.00 in /  0 mm 257 W/m2
14:38 48.4 °F /  9.1 °C 38.7 °F /  3.7 °C 30.18 in /  1021.9 hPa NW 5.0 mph /  8 km/h 8.0 mph /  12.9 km/h 69 % 0.00 in /  0 mm 241 W/m2
14:43 48.2 °F /  9 °C 38.5 °F /  3.6 °C 30.17 in /  1021.6 hPa NNW 4.0 mph /  6.4 km/h 7.0 mph /  11.3 km/h 69 % 0.00 in /  0 mm 206 W/m2
14:48 48.0 °F /  8.9 °C 38.3 °F /  3.5 °C 30.17 in /  1021.6 hPa WNW 5.0 mph /  8 km/h 7.0 mph /  11.3 km/h 69 % 0.00 in /  0 mm 56 W/m2
14:53 47.5 °F /  8.6 °C 38.2 °F /  3.4 °C 30.18 in /  1021.9 hPa NW 5.0 mph /  8 km/h 8.0 mph /  12.9 km/h 70 % 0.00 in /  0 mm 93 W/m2
14:59 46.9 °F /  8.3 °C 37.7 °F /  3.2 °C 30.18 in /  1021.9 hPa NNW 5.0 mph /  8 km/h 8.0 mph /  12.9 km/h 70 % 0.00 in /  0 mm 49 W/m2
15:04 46.8 °F /  8.2 °C 37.5 °F /  3.1 °C 30.18 in /  1021.9 hPa Calm   2.0 mph /  3.2 km/h 70 % 0.00 in /  0 mm 172 W/m2
15:09 46.6 °F /  8.1 °C 37.7 °F /  3.2 °C 30.18 in /  1021.9 hPa NNW 2.0 mph /  3.2 km/h 6.0 mph /  9.7 km/h 71 % 0.00 in /  0 mm 195 W/m2
15:13 46.6 °F /  8.1 °C 38.0 °F /  3.3 °C 30.18 in /  1021.9 hPa Calm     72 % 0.00 in /  0 mm 172 W/m2
15:19 46.6 °F /  8.1 °C 38.0 °F /  3.3 °C 30.18 in /  1021.9 hPa Calm   3.0 mph /  4.8 km/h 72 % 0.00 in /  0 mm 135 W/m2
15:24 46.4 °F /  8 °C 37.9 °F /  3.3 °C 30.18 in /  1021.9 hPa Calm   4.0 mph /  6.4 km/h 72 % 0.00 in /  0 mm 47 W/m2
15:29 46.2 °F /  7.9 °C 37.7 °F /  3.2 °C 30.19 in /  1022.2 hPa Calm   2.0 mph /  3.2 km/h 72 % 0.00 in /  0 mm 44 W/m2
15:34 46.0 °F /  7.8 °C 37.9 °F /  3.3 °C 30.19 in /  1022.2 hPa Calm   2.0 mph /  3.2 km/h 73 % 0.00 in /  0 mm 39 W/m2
15:39 45.9 °F /  7.7 °C 37.7 °F /  3.2 °C 30.19 in /  1022.2 hPa Calm     73 % 0.00 in /  0 mm 28 W/m2
15:44 45.7 °F /  7.6 °C 37.5 °F /  3.1 °C 30.20 in /  1022.6 hPa Calm     73 % 0.00 in /  0 mm 23 W/m2
15:49 45.7 °F /  7.6 °C 37.9 °F /  3.3 °C 30.20 in /  1022.6 hPa Calm     74 % 0.00 in /  0 mm 21 W/m2
15:54 45.5 °F /  7.5 °C 37.7 °F /  3.2 °C 30.20 in /  1022.6 hPa Calm     74 % 0.00 in /  0 mm 14 W/m2
15:59 45.3 °F /  7.4 °C 37.9 °F /  3.3 °C 30.20 in /  1022.6 hPa Calm     75 % 0.00 in /  0 mm 11 W/m2
16:04 45.1 °F /  7.3 °C 37.7 °F /  3.2 °C 30.20 in /  1022.6 hPa Calm     75 % 0.00 in /  0 mm 9 W/m2
16:09 45.0 °F /  7.2 °C 37.5 °F /  3.1 °C 30.21 in /  1022.9 hPa Calm     75 % 0.00 in /  0 mm 9 W/m2
16:10 45.0 °F /  7.2 °C 37.5 °F /  3.1 °C 30.21 in /  1022.9 hPa Calm     75 % 0.00 in /  0 mm 9 W/m2
16:15 44.8 °F /  7.1 °C 37.7 °F /  3.2 °C 30.21 in /  1022.9 hPa Calm     76 % 0.00 in /  0 mm 7 W/m2
16:20 44.4 °F /  6.9 °C 37.3 °F /  2.9 °C 30.22 in /  1023.2 hPa Calm     76 % 0.00 in /  0 mm 5 W/m2
16:25 44.2 °F /  6.8 °C 37.2 °F /  2.9 °C 30.22 in /  1023.2 hPa Calm     76 % 0.00 in /  0 mm 5 W/m2
16:30 44.1 °F /  6.7 °C 37.3 °F /  2.9 °C 30.22 in /  1023.2 hPa Calm     77 % 0.00 in /  0 mm 0 W/m2
16:35 43.9 °F /  6.6 °C 37.1 °F /  2.8 °C 30.22 in /  1023.2 hPa Calm     77 % 0.00 in /  0 mm 0 W/m2
16:40 43.7 °F /  6.5 °C 37.0 °F /  2.8 °C 30.22 in /  1023.2 hPa Calm     77 % 0.00 in /  0 mm 0 W/m2
16:45 43.3 °F /  6.3 °C 36.9 °F /  2.7 °C 30.22 in /  1023.2 hPa Calm     78 % 0.00 in /  0 mm 0 W/m2
16:50 43.2 °F /  6.2 °C 36.8 °F /  2.7 °C 30.23 in /  1023.6 hPa Calm     78 % 0.00 in /  0 mm 0 W/m2
16:55 43.0 °F /  6.1 °C 36.9 °F /  2.7 °C 30.23 in /  1023.6 hPa Calm     79 % 0.00 in /  0 mm 0 W/m2
17:00 42.4 °F /  5.8 °C 36.7 °F /  2.6 °C 30.23 in /  1023.6 hPa Calm     80 % 0.00 in /  0 mm 0 W/m2
17:05 42.3 °F /  5.7 °C 36.8 °F /  2.7 °C 30.24 in /  1023.9 hPa Calm     81 % 0.00 in /  0 mm 0 W/m2
17:10 41.9 °F /  5.5 °C 36.5 °F /  2.5 °C 30.24 in /  1023.9 hPa Calm     81 % 0.00 in /  0 mm 0 W/m2
17:15 41.5 °F /  5.3 °C 36.5 °F /  2.5 °C 30.24 in /  1023.9 hPa Calm     82 % 0.00 in /  0 mm 0 W/m2
17:20 41.4 °F /  5.2 °C 36.3 °F /  2.4 °C 30.24 in /  1023.9 hPa Calm   1.0 mph /  1.6 km/h 82 % 0.00 in /  0 mm 0 W/m2
17:25 41.0 °F /  5 °C 36.2 °F /  2.3 °C 30.24 in /  1023.9 hPa NW 2.0 mph /  3.2 km/h 4.0 mph /  6.4 km/h 83 % 0.00 in /  0 mm 0 W/m2
17:30 40.6 °F /  4.8 °C 35.9 °F /  2.2 °C 30.24 in /  1023.9 hPa WNW 2.0 mph /  3.2 km/h 4.0 mph /  6.4 km/h 83 % 0.00 in /  0 mm 0 W/m2
17:35 40.5 °F /  4.7 °C 36.0 °F /  2.2 °C 30.24 in /  1023.9 hPa WNW 2.0 mph /  3.2 km/h 4.0 mph /  6.4 km/h 84 % 0.00 in /  0 mm 0 W/m2
17:41 40.3 °F /  4.6 °C 35.8 °F /  2.1 °C 30.24 in /  1023.9 hPa WNW 1.0 mph /  1.6 km/h 3.0 mph /  4.8 km/h 84 % 0.00 in /  0 mm 0 W/m2
17:46 40.1 °F /  4.5 °C 36.0 °F /  2.2 °C 30.25 in /  1024.3 hPa WNW 3.0 mph /  4.8 km/h 5.0 mph /  8 km/h 85 % 0.00 in /  0 mm 0 W/m2
17:51 39.9 °F /  4.4 °C 35.8 °F /  2.1 °C 30.25 in /  1024.3 hPa WNW 4.0 mph /  6.4 km/h 7.0 mph /  11.3 km/h 85 % 0.00 in /  0 mm 0 W/m2
17:56 39.9 °F /  4.4 °C 36.1 °F /  2.3 °C 30.25 in /  1024.3 hPa WNW 3.0 mph /  4.8 km/h 6.0 mph /  9.7 km/h 86 % 0.00 in /  0 mm 0 W/m2
18:01 39.9 °F /  4.4 °C 36.1 °F /  2.3 °C 30.25 in /  1024.3 hPa Calm   1.0 mph /  1.6 km/h 86 % 0.00 in /  0 mm 0 W/m2
18:06 39.7 °F /  4.3 °C 35.9 °F /  2.2 °C 30.25 in /  1024.3 hPa WNW 1.0 mph /  1.6 km/h 4.0 mph /  6.4 km/h 86 % 0.00 in /  0 mm 0 W/m2
18:11 39.6 °F /  4.2 °C 35.7 °F /  2.1 °C 30.25 in /  1024.3 hPa Calm   1.0 mph /  1.6 km/h 86 % 0.00 in /  0 mm 0 W/m2
18:16 39.4 °F /  4.1 °C 35.5 °F /  1.9 °C 30.25 in /  1024.3 hPa Calm   2.0 mph /  3.2 km/h 86 % 0.00 in /  0 mm 0 W/m2
18:21 39.0 °F /  3.9 °C 35.2 °F /  1.8 °C 30.25 in /  1024.3 hPa Calm   1.0 mph /  1.6 km/h 86 % 0.00 in /  0 mm 0 W/m2
18:26 38.8 °F /  3.8 °C 35.0 °F /  1.7 °C 30.25 in /  1024.3 hPa Calm   2.0 mph /  3.2 km/h 86 % 0.00 in /  0 mm 0 W/m2
18:31 38.7 °F /  3.7 °C 35.1 °F /  1.7 °C 30.25 in /  1024.3 hPa Calm     87 % 0.00 in /  0 mm 0 W/m2
18:36 38.5 °F /  3.6 °C 34.9 °F /  1.6 °C 30.25 in /  1024.3 hPa Calm     87 % 0.00 in /  0 mm 0 W/m2
18:41 38.1 °F /  3.4 °C 34.6 °F /  1.4 °C 30.25 in /  1024.3 hPa Calm     87 % 0.00 in /  0 mm 0 W/m2
18:46 37.9 °F /  3.3 °C 34.4 °F /  1.3 °C 30.25 in /  1024.3 hPa Calm     87 % 0.00 in /  0 mm 0 W/m2
18:51 37.6 °F /  3.1 °C 34.3 °F /  1.3 °C 30.26 in /  1024.6 hPa Calm     88 % 0.00 in /  0 mm 0 W/m2
18:56 37.4 °F /  3 °C 34.2 °F /  1.2 °C 30.26 in /  1024.6 hPa Calm     88 % 0.00 in /  0 mm 0 W/m2
19:01 37.2 °F /  2.9 °C 34.0 °F /  1.1 °C 30.26 in /  1024.6 hPa Calm     88 % 0.00 in /  0 mm 0 W/m2
19:06 37.0 °F /  2.8 °C 34.1 °F /  1.2 °C 30.26 in /  1024.6 hPa Calm   2.0 mph /  3.2 km/h 89 % 0.00 in /  0 mm 0 W/m2
19:11 37.0 °F /  2.8 °C 34.1 °F /  1.2 °C 30.26 in /  1024.6 hPa Calm     89 % 0.00 in /  0 mm 0 W/m2
19:16 37.0 °F /  2.8 °C 34.4 °F /  1.3 °C 30.26 in /  1024.6 hPa West 1.0 mph /  1.6 km/h 2.0 mph /  3.2 km/h 90 % 0.00 in /  0 mm 0 W/m2
19:21 37.0 °F /  2.8 °C 34.4 °F /  1.3 °C 30.26 in /  1024.6 hPa Calm     90 % 0.00 in /  0 mm 0 W/m2
19:26 36.9 °F /  2.7 °C 34.2 °F /  1.2 °C 30.26 in /  1024.6 hPa West 1.0 mph /  1.6 km/h 4.0 mph /  6.4 km/h 90 % 0.00 in /  0 mm 0 W/m2
19:31 37.0 °F /  2.8 °C 34.4 °F /  1.3 °C 30.26 in /  1024.6 hPa Calm     90 % 0.00 in /  0 mm 0 W/m2
19:36 36.9 °F /  2.7 °C 34.2 °F /  1.2 °C 30.26 in /  1024.6 hPa Calm     90 % 0.00 in /  0 mm 0 W/m2
19:41 36.7 °F /  2.6 °C 34.0 °F /  1.1 °C 30.26 in /  1024.6 hPa Calm     90 % 0.00 in /  0 mm 0 W/m2
19:46 36.7 °F /  2.6 °C 34.0 °F /  1.1 °C 30.26 in /  1024.6 hPa Calm     90 % 0.00 in /  0 mm 0 W/m2
19:51 36.5 °F /  2.5 °C 33.8 °F /  1 °C 30.27 in /  1024.9 hPa Calm     90 % 0.00 in /  0 mm 0 W/m2
19:56 36.3 °F /  2.4 °C 33.7 °F /  0.9 °C 30.27 in /  1024.9 hPa Calm   2.0 mph /  3.2 km/h 90 % 0.00 in /  0 mm 0 W/m2
20:01 36.3 °F /  2.4 °C 33.7 °F /  0.9 °C 30.27 in /  1024.9 hPa Calm     90 % 0.00 in /  0 mm 0 W/m2
20:06 36.1 °F /  2.3 °C 33.8 °F /  1 °C 30.26 in /  1024.6 hPa Calm     91 % 0.00 in /  0 mm 0 W/m2
20:11 36.1 °F /  2.3 °C 33.8 °F /  1 °C 30.27 in /  1024.9 hPa Calm     91 % 0.00 in /  0 mm 0 W/m2
20:12 36.1 °F /  2.3 °C 33.8 °F /  1 °C 30.27 in /  1024.9 hPa Calm     91 % 0.00 in /  0 mm 0 W/m2
20:17 36.1 °F /  2.3 °C 33.8 °F /  1 °C 30.26 in /  1024.6 hPa Calm     91 % 0.00 in /  0 mm 0 W/m2
20:22 36.1 °F /  2.3 °C 33.8 °F /  1 °C 30.26 in /  1024.6 hPa Calm     91 % 0.00 in /  0 mm 0 W/m2
20:27 36.1 °F /  2.3 °C 33.8 °F /  1 °C 30.26 in /  1024.6 hPa Calm     91 % 0.00 in /  0 mm 0 W/m2
20:32 36.1 °F /  2.3 °C 33.8 °F /  1 °C 30.26 in /  1024.6 hPa Calm     91 % 0.00 in /  0 mm 0 W/m2
20:37 36.1 °F /  2.3 °C 33.8 °F /  1 °C 30.26 in /  1024.6 hPa Calm     91 % 0.00 in /  0 mm 0 W/m2
20:42 36.1 °F /  2.3 °C 34.0 °F /  1.1 °C 30.26 in /  1024.6 hPa Calm     92 % 0.00 in /  0 mm 0 W/m2
20:47 36.1 °F /  2.3 °C 34.0 °F /  1.1 °C 30.27 in /  1024.9 hPa Calm     92 % 0.00 in /  0 mm 0 W/m2
20:53 36.1 °F /  2.3 °C 34.0 °F /  1.1 °C 30.26 in /  1024.6 hPa Calm     92 % 0.00 in /  0 mm 0 W/m2
20:58 36.1 °F /  2.3 °C 34.0 °F /  1.1 °C 30.27 in /  1024.9 hPa West 2.0 mph /  3.2 km/h 4.0 mph /  6.4 km/h 92 % 0.00 in /  0 mm 0 W/m2
21:03 36.3 °F /  2.4 °C 34.5 °F /  1.4 °C 30.26 in /  1024.6 hPa West 1.0 mph /  1.6 km/h 3.0 mph /  4.8 km/h 93 % 0.00 in /  0 mm 0 W/m2
21:08 36.5 °F /  2.5 °C 34.7 °F /  1.5 °C 30.26 in /  1024.6 hPa Calm   4.0 mph /  6.4 km/h 93 % 0.00 in /  0 mm 0 W/m2
21:13 36.7 °F /  2.6 °C 34.8 °F /  1.6 °C 30.27 in /  1024.9 hPa Calm   2.0 mph /  3.2 km/h 93 % 0.00 in /  0 mm 0 W/m2
21:18 36.9 °F /  2.7 °C 35.0 °F /  1.7 °C 30.26 in /  1024.6 hPa Calm     93 % 0.00 in /  0 mm 0 W/m2
21:23 36.9 °F /  2.7 °C 35.0 °F /  1.7 °C 30.26 in /  1024.6 hPa Calm     93 % 0.00 in /  0 mm 0 W/m2
21:28 36.9 °F /  2.7 °C 35.0 °F /  1.7 °C 30.26 in /  1024.6 hPa SW 1.0 mph /  1.6 km/h 4.0 mph /  6.4 km/h 93 % 0.00 in /  0 mm 0 W/m2
21:33 37.0 °F /  2.8 °C 34.9 °F /  1.6 °C 30.26 in /  1024.6 hPa Calm     92 % 0.00 in /  0 mm 0 W/m2
21:38 36.9 °F /  2.7 °C 34.8 °F /  1.6 °C 30.26 in /  1024.6 hPa Calm     92 % 0.00 in /  0 mm 0 W/m2
21:43 36.9 °F /  2.7 °C 34.8 °F /  1.6 °C 30.26 in /  1024.6 hPa Calm     92 % 0.00 in /  0 mm 0 W/m2
21:48 36.9 °F /  2.7 °C 34.8 °F /  1.6 °C 30.26 in /  1024.6 hPa Calm     92 % 0.00 in /  0 mm 0 W/m2
21:53 36.9 °F /  2.7 °C 34.8 °F /  1.6 °C 30.26 in /  1024.6 hPa Calm   2.0 mph /  3.2 km/h 92 % 0.00 in /  0 mm 0 W/m2
21:58 36.7 °F /  2.6 °C 34.6 °F /  1.4 °C 30.26 in /  1024.6 hPa Calm   1.0 mph /  1.6 km/h 92 % 0.00 in /  0 mm 0 W/m2
22:03 36.7 °F /  2.6 °C 34.6 °F /  1.4 °C 30.26 in /  1024.6 hPa Calm     92 % 0.00 in /  0 mm 0 W/m2
22:08 36.7 °F /  2.6 °C 34.8 °F /  1.6 °C 30.26 in /  1024.6 hPa Calm     93 % 0.00 in /  0 mm 0 W/m2
22:13 36.9 °F /  2.7 °C 35.0 °F /  1.7 °C 30.26 in /  1024.6 hPa Calm     93 % 0.00 in /  0 mm 0 W/m2
22:18 36.9 °F /  2.7 °C 34.8 °F /  1.6 °C 30.25 in /  1024.3 hPa SSW 1.0 mph /  1.6 km/h 5.0 mph /  8 km/h 92 % 0.00 in /  0 mm 0 W/m2
22:23 36.9 °F /  2.7 °C 35.0 °F /  1.7 °C 30.25 in /  1024.3 hPa Calm   1.0 mph /  1.6 km/h 93 % 0.00 in /  0 mm 0 W/m2
22:28 36.9 °F /  2.7 °C 35.0 °F /  1.7 °C 30.25 in /  1024.3 hPa Calm   2.0 mph /  3.2 km/h 93 % 0.00 in /  0 mm 0 W/m2
22:33 36.9 °F /  2.7 °C 35.0 °F /  1.7 °C 30.25 in /  1024.3 hPa Calm     93 % 0.00 in /  0 mm 0 W/m2
22:38 36.9 °F /  2.7 °C 34.8 °F /  1.6 °C 30.26 in /  1024.6 hPa Calm     92 % 0.00 in /  0 mm 0 W/m2
22:43 36.7 °F /  2.6 °C 34.6 °F /  1.4 °C 30.26 in /  1024.6 hPa Calm   2.0 mph /  3.2 km/h 92 % 0.00 in /  0 mm 0 W/m2
22:48 36.7 °F /  2.6 °C 34.8 °F /  1.6 °C 30.26 in /  1024.6 hPa SW 2.0 mph /  3.2 km/h 6.0 mph /  9.7 km/h 93 % 0.00 in /  0 mm 0 W/m2
22:53 36.9 °F /  2.7 °C 35.0 °F /  1.7 °C 30.25 in /  1024.3 hPa Calm   2.0 mph /  3.2 km/h 93 % 0.00 in /  0 mm 0 W/m2
22:58 37.0 °F /  2.8 °C 35.2 °F /  1.8 °C 30.25 in /  1024.3 hPa Calm   1.0 mph /  1.6 km/h 93 % 0.00 in /  0 mm 0 W/m2
23:03 36.9 °F /  2.7 °C 35.0 °F /  1.7 °C 30.26 in /  1024.6 hPa Calm     93 % 0.00 in /  0 mm 0 W/m2
23:08 37.0 °F /  2.8 °C 35.2 °F /  1.8 °C 30.26 in /  1024.6 hPa Calm     93 % 0.00 in /  0 mm 0 W/m2
23:13 36.9 °F /  2.7 °C 34.8 °F /  1.6 °C 30.26 in /  1024.6 hPa Calm     92 % 0.00 in /  0 mm 0 W/m2
23:18 36.9 °F /  2.7 °C 34.8 °F /  1.6 °C 30.26 in /  1024.6 hPa Calm     92 % 0.00 in /  0 mm 0 W/m2
23:24 36.9 °F /  2.7 °C 34.8 °F /  1.6 °C 30.26 in /  1024.6 hPa Calm     92 % 0.00 in /  0 mm 0 W/m2
23:29 36.9 °F /  2.7 °C 35.0 °F /  1.7 °C 30.26 in /  1024.6 hPa Calm   2.0 mph /  3.2 km/h 93 % 0.00 in /  0 mm 0 W/m2
23:34 37.0 °F /  2.8 °C 35.2 °F /  1.8 °C 30.26 in /  1024.6 hPa Calm   2.0 mph /  3.2 km/h 93 % 0.00 in /  0 mm 0 W/m2
23:39 37.2 °F /  2.9 °C 35.4 °F /  1.9 °C 30.25 in /  1024.3 hPa Calm     93 % 0.00 in /  0 mm 0 W/m2
23:44 37.2 °F /  2.9 °C 35.4 °F /  1.9 °C 30.25 in /  1024.3 hPa Calm     93 % 0.00 in /  0 mm 0 W/m2
23:49 37.2 °F /  2.9 °C 35.1 °F /  1.7 °C 30.25 in /  1024.3 hPa Calm     92 % 0.00 in /  0 mm 0 W/m2
23:54 37.0 °F /  2.8 °C 34.9 °F /  1.6 °C 30.25 in /  1024.3 hPa Calm     92 % 0.00 in /  0 mm 0 W/m2
23:59 37.0 °F /  2.8 °C 34.9 °F /  1.6 °C 30.25 in /  1024.3 hPa Calm   1.0 mph /  1.6 km/h 92 % 0.00 in /  0 mm 0 W/m2
Delerius-Weather
Compliments of Weather Underground - 2.25 mb

Data updates at regular intervals.